Angers-Marce Airport

LFJR · Maine-et-Loire, 卢瓦尔河地区, 法国

罗盘
风向 的 风向 的 风向 到 风向 260° Angers-Marce Airport 8/26
风: 4 kt, 2 beaufort

4 kt

改变
0 ft 1.000 2.000 3.000 4.000 5.000
CAVOK
METAR LFJR 190830Z AUTO 26004KT 230V320 CAVOK 25/18 Q1017

METAR Angers-Marce Airport - LFJR/ANE

Angers-Marce Airport是,法国中的中型机场。 该机场位于纬度47,56025和经度-0,31282。 该机场有3条跑道: 8/26, 8R/26L 和 8L/26R. 本场的ICAO机场代码为LFJR。 该机场的IATA代码为ANE。 机场在Brest FIR中。

该航空气象观测是针对Angers-Marce Airport在2024年7月19日 10:30, 当地时间进行的。

机场观察

风向为260°,速度为4 kt。 风向在230°和320°之间变化。

天气为CAVOK。这意味着在5.000 ft或MSA(最低安全高度)以下(以较高者为准)以下没有云。这也意味着没有观测到积雨云或高耸的积云,可见度为10 km 或者更多或更高。此外,不会有雾,降雨或其他重要天气。

温度和风寒是25 °C。 露点为18 °C,相对湿度为65%。 海平面上的气压为1017 hPa (QNH)。

白天

今天,太阳从06:24升起,在21:51降落。 这适用于Angers-Marce Airport,世界夏令时可能有所不同。 当地时间与世界标准时间之间的时差为+2 小时。 夏令时目前正在进行中。

公司介绍

在这个机场,你可以找到飞行俱乐部。 这个机场上的公司有Aéroclub Angers Marcé, Centre de Perfect. Voltige Aérienne 和 ESPACE AIR PASSION - Group. Preserv. Patri. Aéro. -LFJR。

体会

到Vliegles.nl去找飞行课程,跳伞和其他飞行体验。 浏览页面,了解Angers-Marce Airport附近所有可用的活动。 你也可以使用搜索功能来寻找你所在地附近的特定飞行课程、跳伞或其他飞行体验。

跑道

Id 标题 侧风 逆风 侧风 %
8/26 081°-261° 4 kt 2 %
8R/26L 081°-261° 4 kt 2 %
8L/26R 081°-261° 4 kt 2 %

逆风成分最大的方向会被突出显示,并用于横风计算。 这并不一定意味着这个方向在使用。

温度 & 天气

温度 25 °C
露点 18 °C
相对湿度 65%
Kp-index 1 (0-9)

白天

日出
06:24
中午
14:07
日落
21:51 (10:55)

小工具

你想在你的网站上有一个关于Angers-Marce Airport的当前航空天气(METAR)的小部件吗?

显示HTML代码
报告变更